地図

経路データ

SID SEASON NUMBER BASIN SUBBASIN NAME ISO_TIME NATURE LAT LON WMO_WIND WMO_PRES WMO_AGENCY TRACK_TYPE DIST2LAND LANDFALL IFLAG USA_AGENCY USA_ATCF_ID USA_LAT USA_LON USA_RECORD USA_STATUS USA_WIND USA_PRES USA_SSHS USA_R34_NE USA_R34_SE USA_R34_SW USA_R34_NW USA_R50_NE USA_R50_SE USA_R50_SW USA_R50_NW USA_R64_NE USA_R64_SE USA_R64_SW USA_R64_NW USA_POCI USA_ROCI USA_RMW USA_EYE TOKYO_LAT TOKYO_LON TOKYO_GRADE TOKYO_WIND TOKYO_PRES TOKYO_R50_DIR TOKYO_R50_LONG TOKYO_R50_SHORT TOKYO_R30_DIR TOKYO_R30_LONG TOKYO_R30_SHORT TOKYO_LAND CMA_LAT CMA_LON CMA_CAT CMA_WIND CMA_PRES HKO_LAT HKO_LON HKO_CAT HKO_WIND HKO_PRES NEWDELHI_LAT NEWDELHI_LON NEWDELHI_GRADE NEWDELHI_WIND NEWDELHI_PRES NEWDELHI_CI NEWDELHI_DP NEWDELHI_POCI REUNION_LAT REUNION_LON REUNION_TYPE REUNION_WIND REUNION_PRES REUNION_TNUM REUNION_CI REUNION_RMW REUNION_R34_NE REUNION_R34_SE REUNION_R34_SW REUNION_R34_NW REUNION_R50_NE REUNION_R50_SE REUNION_R50_SW REUNION_R50_NW REUNION_R64_NE REUNION_R64_SE REUNION_R64_SW REUNION_R64_NW BOM_LAT BOM_LON BOM_TYPE BOM_WIND BOM_PRES BOM_TNUM BOM_CI BOM_RMW BOM_R34_NE BOM_R34_SE BOM_R34_SW BOM_R34_NW BOM_R50_NE BOM_R50_SE BOM_R50_SW BOM_R50_NW BOM_R64_NE BOM_R64_SE BOM_R64_SW BOM_R64_NW BOM_ROCI BOM_POCI BOM_EYE BOM_POS_METHOD BOM_PRES_METHOD NADI_LAT NADI_LON NADI_CAT NADI_WIND NADI_PRES WELLINGTON_LAT WELLINGTON_LON WELLINGTON_WIND WELLINGTON_PRES DS824_LAT DS824_LON DS824_STAGE DS824_WIND DS824_PRES TD9636_LAT TD9636_LON TD9636_STAGE TD9636_WIND TD9636_PRES TD9635_LAT TD9635_LON TD9635_WIND TD9635_PRES TD9635_ROCI NEUMANN_LAT NEUMANN_LON NEUMANN_CLASS NEUMANN_WIND NEUMANN_PRES MLC_LAT MLC_LON MLC_CLASS MLC_WIND MLC_PRES USA_GUST BOM_GUST BOM_GUST_PER REUNION_GUST REUNION_GUST_PER USA_SEAHGT USA_SEARAD_NE USA_SEARAD_SE USA_SEARAD_SW USA_SEARAD_NW STORM_SPEED STORM_DIR
1906263N12283 1906 37 NA CS NOT_NAMED 1906-09-19 12:00:00 TS 12.0000 -77.0000 30 hurdat_atl main 226 226 O_____________ hurdat_atl AL061906 12.0000 -77.0000 TD 30 -1 5 281
1906263N12283 1906 37 NA CS NOT_NAMED 1906-09-19 15:00:00 TS 12.0501 -77.2600 main 258 258 P_____________ AL061906 12.0501 -77.2600 TD 30 -1 5 282
1906263N12283 1906 37 NA CS NOT_NAMED 1906-09-19 18:00:00 TS 12.1000 -77.5000 30 hurdat_atl main 275 275 O_____________ hurdat_atl AL061906 12.1000 -77.5000 TD 30 -1 4 283
1906263N12283 1906 37 NA CS NOT_NAMED 1906-09-19 21:00:00 TS 12.1500 -77.7075 main 292 292 P_____________ AL061906 12.1500 -77.7075 TD 32 -1 4 284
1906263N12283 1906 37 NA CS NOT_NAMED 1906-09-20 00:00:00 TS 12.2000 -77.9000 35 hurdat_atl main 317 317 O_____________ hurdat_atl AL061906 12.2000 -77.9000 TS 35 0 4 284
1906263N12283 1906 37 NA CS NOT_NAMED 1906-09-20 03:00:00 TS 12.2425 -78.1000 main 321 321 P_____________ AL061906 12.2425 -78.1000 TS 35 0 4 284
1906263N12283 1906 37 NA CS NOT_NAMED 1906-09-20 06:00:00 TS 12.3000 -78.3000 35 hurdat_atl main 325 322 O_____________ hurdat_atl AL061906 12.3000 -78.3000 TS 35 0 4 290
1906263N12283 1906 37 NA CS NOT_NAMED 1906-09-20 09:00:00 TS 12.3850 -78.4925 main 331 329 P_____________ AL061906 12.3850 -78.4925 TS 35 0 4 297
1906263N12283 1906 37 NA CS NOT_NAMED 1906-09-20 12:00:00 TS 12.5000 -78.7000 35 hurdat_atl main 338 337 O_____________ hurdat_atl AL061906 12.5000 -78.7000 TS 35 0 5 300
1906263N12283 1906 37 NA CS NOT_NAMED 1906-09-20 15:00:00 TS 12.6350 -78.9425 main 347 347 P_____________ AL061906 12.6350 -78.9425 TS 35 0 6 302
1906263N12283 1906 37 NA CS NOT_NAMED 1906-09-20 18:00:00 TS 12.8000 -79.2000 35 hurdat_atl main 369 369 O_____________ hurdat_atl AL061906 12.8000 -79.2000 TS 35 0 6 305
1906263N12283 1906 37 NA CS NOT_NAMED 1906-09-20 21:00:00 TS 12.9925 -79.4575 main 391 391 P_____________ AL061906 12.9925 -79.4575 TS 35 0 6 309
1906263N12283 1906 37 NA CS NOT_NAMED 1906-09-21 00:00:00 TS 13.2000 -79.7000 35 hurdat_atl main 397 370 O_____________ hurdat_atl AL061906 13.2000 -79.7000 TS 35 0 6 313
1906263N12283 1906 37 NA CS NOT_NAMED 1906-09-21 03:00:00 TS 13.4000 -79.9075 main 370 343 P_____________ AL061906 13.4000 -79.9075 TS 35 0 6 316
1906263N12283 1906 37 NA CS NOT_NAMED 1906-09-21 06:00:00 TS 13.6000 -80.1000 35 hurdat_atl main 343 317 O_____________ hurdat_atl AL061906 13.6000 -80.1000 TS 35 0 5 315
1906263N12283 1906 37 NA CS NOT_NAMED 1906-09-21 09:00:00 TS 13.7850 -80.3001 main 317 293 P_____________ AL061906 13.7850 -80.3001 TS 35 0 6 316
1906263N12283 1906 37 NA CS NOT_NAMED 1906-09-21 12:00:00 TS 14.0000 -80.5000 35 hurdat_atl main 293 269 O_____________ hurdat_atl AL061906 14.0000 -80.5000 TS 35 0 6 322
1906263N12283 1906 37 NA CS NOT_NAMED 1906-09-21 15:00:00 TS 14.2850 -80.7000 main 269 240 P_____________ AL061906 14.2850 -80.7000 TS 35 0 7 327
1906263N12283 1906 37 NA CS NOT_NAMED 1906-09-21 18:00:00 TS 14.6000 -80.9000 35 hurdat_atl main 240 215 O_____________ hurdat_atl AL061906 14.6000 -80.9000 TS 35 0 7 328
1906263N12283 1906 37 NA CS NOT_NAMED 1906-09-21 21:00:00 TS 14.9000 -81.0926 main 215 193 P_____________ AL061906 14.9000 -81.0926 TS 37 0 7 327
1906263N12283 1906 37 NA CS NOT_NAMED 1906-09-22 00:00:00 TS 15.2000 -81.3000 40 hurdat_atl main 194 177 O_____________ hurdat_atl AL061906 15.2000 -81.3000 TS 40 0 8 324
1906263N12283 1906 37 NA CS NOT_NAMED 1906-09-22 03:00:00 TS 15.5075 -81.5425 main 180 164 P_____________ AL061906 15.5075 -81.5425 TS 40 0 8 321
1906263N12283 1906 37 NA CS NOT_NAMED 1906-09-22 06:00:00 TS 15.8000 -81.8000 40 hurdat_atl main 165 162 O_____________ hurdat_atl AL061906 15.8000 -81.8000 TS 40 0 7 318
1906263N12283 1906 37 NA CS NOT_NAMED 1906-09-22 09:00:00 TS 16.0500 -82.0501 main 154 154 P_____________ AL061906 16.0500 -82.0501 TS 42 0 7 316
1906263N12283 1906 37 NA CS NOT_NAMED 1906-09-22 12:00:00 TS 16.3000 -82.3000 45 hurdat_atl main 162 162 O_____________ hurdat_atl AL061906 16.3000 -82.3000 TS 45 0 7 318
1906263N12283 1906 37 NA CS NOT_NAMED 1906-09-22 15:00:00 TS 16.5925 -82.5575 main 168 168 P_____________ AL061906 16.5925 -82.5575 TS 45 0 8 321
1906263N12283 1906 37 NA CS NOT_NAMED 1906-09-22 18:00:00 TS 16.9000 -82.8000 45 hurdat_atl main 190 190 O_____________ hurdat_atl AL061906 16.9000 -82.8000 TS 45 0 7 325
1906263N12283 1906 37 NA CS NOT_NAMED 1906-09-22 21:00:00 TS 17.1999 -83.0001 main 208 208 P_____________ AL061906 17.1999 -83.0001 TS 47 0 7 328
1906263N12283 1906 37 NA CS NOT_NAMED 1906-09-23 00:00:00 TS 17.5000 -83.2000 50 hurdat_atl main 223 223 O_____________ hurdat_atl AL061906 17.5000 -83.2000 TS 50 0 7 324
1906263N12283 1906 37 NA CS NOT_NAMED 1906-09-23 03:00:00 TS 17.8000 -83.4575 main 239 239 P_____________ AL061906 17.8000 -83.4575 TS 50 0 8 322
1906263N12283 1906 37 NA CS NOT_NAMED 1906-09-23 06:00:00 TS 18.1000 -83.7000 50 hurdat_atl main 265 265 O_____________ hurdat_atl AL061906 18.1000 -83.7000 TS 50 0 7 327
1906263N12283 1906 37 NA CS NOT_NAMED 1906-09-23 09:00:00 TS 18.3999 -83.8651 main 292 292 P_____________ AL061906 18.3999 -83.8651 TS 52 0 7 335
1906263N12283 1906 37 NA CS NOT_NAMED 1906-09-23 12:00:00 TS 18.7000 -84.0000 55 hurdat_atl main 322 300 O_____________ hurdat_atl AL061906 18.7000 -84.0000 TS 55 0 7 335
1906263N12283 1906 37 NA CS NOT_NAMED 1906-09-23 15:00:00 TS 18.9925 -84.1501 main 305 280 P_____________ AL061906 18.9925 -84.1501 TS 57 0 7 335
1906263N12283 1906 37 NA CS NOT_NAMED 1906-09-23 18:00:00 TS 19.3000 -84.3000 60 hurdat_atl main 280 246 O_____________ hurdat_atl AL061906 19.3000 -84.3000 TS 60 0 7 336
1906263N12283 1906 37 NA CS NOT_NAMED 1906-09-23 21:00:00 TS 19.6500 -84.4575 main 234 201 P_____________ AL061906 19.6500 -84.4575 TS 62 0 8 338
1906263N12283 1906 37 NA CS NOT_NAMED 1906-09-24 00:00:00 TS 20.0000 -84.6000 65 hurdat_atl main 201 168 O_____________ hurdat_atl AL061906 20.0000 -84.6000 HU 65 1 7 340
1906263N12283 1906 37 NA CS NOT_NAMED 1906-09-24 03:00:00 TS 20.2925 -84.7002 main 168 134 P_____________ AL061906 20.2925 -84.7002 HU 67 1 6 343
1906263N12283 1906 37 NA CS NOT_NAMED 1906-09-24 06:00:00 TS 20.6000 -84.8000 70 hurdat_atl main 134 90 O_____________ hurdat_atl AL061906 20.6000 -84.8000 HU 70 1 8 341
1906263N12283 1906 37 NA CS NOT_NAMED 1906-09-24 09:00:00 TS 21.0075 -84.9573 main 91 54 P_____________ AL061906 21.0075 -84.9573 HU 72 1 9 341
1906263N12283 1906 37 NA CS NOT_NAMED 1906-09-24 12:00:00 TS 21.4000 -85.1000 75 hurdat_atl main 54 24 O_____________ hurdat_atl AL061906 21.4000 -85.1000 HU 75 1 7 345
1906263N12283 1906 37 NA CS NOT_NAMED 1906-09-24 15:00:00 TS 21.6799 -85.1502 main 30 20 P_____________ AL061906 21.6799 -85.1502 HU 77 1 5 349
1906263N12283 1906 37 NA GM NOT_NAMED 1906-09-24 18:00:00 TS 21.9000 -85.2000 80 hurdat_atl main 20 20 O_____________ hurdat_atl AL061906 21.9000 -85.2000 HU 80 1 5 337
1906263N12283 1906 37 NA GM NOT_NAMED 1906-09-24 21:00:00 TS 22.1000 -85.3425 main 38 38 P_____________ AL061906 22.1000 -85.3425 HU 82 1 5 325
1906263N12283 1906 37 NA GM NOT_NAMED 1906-09-25 00:00:00 TS 22.3000 -85.5000 85 hurdat_atl main 68 68 O_____________ hurdat_atl AL061906 22.3000 -85.5000 HU 85 2 5 332
1906263N12283 1906 37 NA GM NOT_NAMED 1906-09-25 03:00:00 TS 22.5425 -85.6001 main 91 91 P_____________ AL061906 22.5425 -85.6001 HU 87 2 5 340
1906263N12283 1906 37 NA GM NOT_NAMED 1906-09-25 06:00:00 TS 22.8000 -85.7000 90 hurdat_atl main 123 123 O_____________ hurdat_atl AL061906 22.8000 -85.7000 HU 90 2 5 336
1906263N12283 1906 37 NA GM NOT_NAMED 1906-09-25 09:00:00 TS 23.0350 -85.8426 main 147 147 P_____________ AL061906 23.0350 -85.8426 HU 92 2 6 331
1906263N12283 1906 37 NA GM NOT_NAMED 1906-09-25 12:00:00 TS 23.3000 -86.0000 95 hurdat_atl main 187 187 O_____________ hurdat_atl AL061906 23.3000 -86.0000 HU 95 2 7 335
1906263N12283 1906 37 NA GM NOT_NAMED 1906-09-25 15:00:00 TS 23.6350 -86.1500 main 226 226 P_____________ AL061906 23.6350 -86.1500 HU 97 3 8 339
1906263N12283 1906 37 NA GM NOT_NAMED 1906-09-25 18:00:00 TS 24.0000 -86.3000 100 hurdat_atl main 269 269 O_____________ hurdat_atl AL061906 24.0000 -86.3000 HU 100 3 8 338
1906263N12283 1906 37 NA GM NOT_NAMED 1906-09-25 21:00:00 TS 24.3425 -86.4575 main 308 308 P_____________ AL061906 24.3425 -86.4575 HU 102 3 8 339
1906263N12283 1906 37 NA GM NOT_NAMED 1906-09-26 00:00:00 TS 24.7000 -86.6000 105 hurdat_atl main 346 346 O_____________ hurdat_atl AL061906 24.7000 -86.6000 HU 105 3 8 343
1906263N12283 1906 37 NA GM NOT_NAMED 1906-09-26 03:00:00 TS 25.0925 -86.7076 main 383 383 P_____________ AL061906 25.0925 -86.7076 HU 105 3 8 347
1906263N12283 1906 37 NA GM NOT_NAMED 1906-09-26 06:00:00 TS 25.5000 -86.8000 105 hurdat_atl main 422 408 O_____________ hurdat_atl AL061906 25.5000 -86.8000 HU 105 3 8 349
1906263N12283 1906 37 NA GM NOT_NAMED 1906-09-26 09:00:00 TS 25.8850 -86.8853 main 408 365 P_____________ AL061906 25.8850 -86.8853 HU 105 3 8 347
1906263N12283 1906 37 NA GM NOT_NAMED 1906-09-26 12:00:00 TS 26.3000 -87.0000 105 953 hurdat_atl main 365 317 O_____________ hurdat_atl AL061906 26.3000 -87.0000 HU 105 953 3 9 344
1906263N12283 1906 37 NA GM NOT_NAMED 1906-09-26 15:00:00 TS 26.7775 -87.1776 main 308 252 P_____________ AL061906 26.7775 -87.1776 HU 102 3 11 340
1906263N12283 1906 37 NA GM NOT_NAMED 1906-09-26 18:00:00 TS 27.3000 -87.4000 100 hurdat_atl main 252 198 O_____________ hurdat_atl AL061906 27.3000 -87.4000 HU 100 3 12 339
1906263N12283 1906 37 NA GM NOT_NAMED 1906-09-26 21:00:00 TS 27.8500 -87.6425 main 198 132 P_____________ AL061906 27.8500 -87.6425 HU 100 3 12 338
1906263N12283 1906 37 NA GM NOT_NAMED 1906-09-27 00:00:00 TS 28.4000 -87.9000 100 hurdat_atl main 132 80 O_____________ hurdat_atl AL061906 28.4000 -87.9000 HU 100 3 12 336
1906263N12283 1906 37 NA GM NOT_NAMED 1906-09-27 03:00:00 TS 28.9106 -88.1714 main 80 62 P_____________ AL061906 28.9106 -88.1714 HU 97 3 11 336
1906263N12283 1906 37 NA GM NOT_NAMED 1906-09-27 06:00:00 TS 29.4000 -88.4000 95 hurdat_atl main 67 55 O_____________ hurdat_atl AL061906 29.4000 -88.4000 HU 95 2 10 344
1906263N12283 1906 37 NA GM NOT_NAMED 1906-09-27 09:00:00 TS 29.8531 -88.4875 main 44 14 P_____________ AL061906 29.8531 -88.4875 HU 95 2 10 348
1906263N12283 1906 37 NA GM NOT_NAMED 1906-09-27 11:00:00 TS 30.2000 -88.6000 95 hurdat_atl main 14 0 O_____________ hurdat_atl AL061906 30.2000 -88.6000 L HU 95 2 12 341
1906263N12283 1906 37 NA NA NOT_NAMED 1906-09-27 12:00:00 TS 30.4000 -88.7000 95 958 hurdat_atl main 0 0 O_____________ hurdat_atl AL061906 30.4000 -88.7000 HU 95 958 2 12 341
1906263N12283 1906 37 NA NA NOT_NAMED 1906-09-27 15:00:00 TS 30.9269 -88.8909 main 0 0 P_____________ AL061906 30.9269 -88.8909 HU 80 1 10 346
1906263N12283 1906 37 NA NA NOT_NAMED 1906-09-27 18:00:00 TS 31.4000 -89.0000 65 hurdat_atl main 0 0 O_____________ hurdat_atl AL061906 31.4000 -89.0000 HU 65 1 10 347
1906263N12283 1906 37 NA NA NOT_NAMED 1906-09-27 21:00:00 TS 31.8850 -89.1502 main 0 0 P_____________ AL061906 31.8850 -89.1502 HU 57 0 10 346
1906263N12283 1906 37 NA NA NOT_NAMED 1906-09-28 00:00:00 TS 32.4000 -89.3000 50 hurdat_atl main 0 0 O_____________ hurdat_atl AL061906 32.4000 -89.3000 TS 50 0 11 347
1906263N12283 1906 37 NA NA NOT_NAMED 1906-09-28 03:00:00 TS 32.9925 -89.4501 main 0 0 P_____________ AL061906 32.9925 -89.4501 TS 45 0 12 348
1906263N12283 1906 37 NA NA NOT_NAMED 1906-09-28 06:00:00 TS 33.6000 -89.6000 40 hurdat_atl main 0 0 O_____________ hurdat_atl AL061906 33.6000 -89.6000 TS 40 0 12 348
1906263N12283 1906 37 NA NA NOT_NAMED 1906-09-28 09:00:00 TS 34.1725 -89.7502 main 0 0 P_____________ AL061906 34.1725 -89.7502 TS 40 0 11 347
1906263N12283 1906 37 NA NA NOT_NAMED 1906-09-28 12:00:00 TS 34.7000 -89.9000 40 hurdat_atl main 0 0 O_____________ hurdat_atl AL061906 34.7000 -89.9000 TS 40 0 10 346
1906263N12283 1906 37 NA NA NOT_NAMED 1906-09-28 15:00:00 TS 35.1575 -90.0577 main 0 0 P_____________ AL061906 35.1575 -90.0577 TS 37 0 9 345
1906263N12283 1906 37 NA NA NOT_NAMED 1906-09-28 18:00:00 TS 35.6000 -90.2000 35 hurdat_atl main 0 0 O_____________ hurdat_atl AL061906 35.6000 -90.2000 TS 35 0 10 348
1906263N12283 1906 37 NA NA NOT_NAMED 1906-09-28 21:00:00 TS 36.1150 -90.3150 main 0 0 P_____________ AL061906 36.1150 -90.3150 TS 35 0 10 351
1906263N12283 1906 37 NA NA NOT_NAMED 1906-09-29 00:00:00 TS 36.6000 -90.4000 35 hurdat_atl main 0 0 O_____________ hurdat_atl AL061906 36.6000 -90.4000 TS 35 0 9 351
1906263N12283 1906 37 NA NA NOT_NAMED 1906-09-29 03:00:00 TS 36.9725 -90.4799 main 0 0 P_____________ AL061906 36.9725 -90.4799 TS 32 -1 7 354
1906263N12283 1906 37 NA NA NOT_NAMED 1906-09-29 06:00:00 TS 37.3000 -90.5000 30 hurdat_atl main 0 0 O_____________ hurdat_atl AL061906 37.3000 -90.5000 TD 30 -1 7 0
1906263N12283 1906 37 NA NA NOT_NAMED 1906-09-29 09:00:00 TS 37.6872 -90.4750 main 0 0 P_____________ AL061906 37.6872 -90.4750 TD 30 -1 7 13
1906263N12283 1906 37 NA NA NOT_NAMED 1906-09-29 12:00:00 ET 38.0000 -90.3000 30 hurdat_atl main 0 0 O_____________ hurdat_atl AL061906 38.0000 -90.3000 EX 30 -4 7 43
1906263N12283 1906 37 NA NA NOT_NAMED 1906-09-29 15:00:00 ET 38.1677 -89.9104 main 0 0 P_____________ AL061906 38.1677 -89.9104 EX 30 -4 7 74
1906263N12283 1906 37 NA NA NOT_NAMED 1906-09-29 18:00:00 ET 38.2000 -89.4000 30 hurdat_atl main 0 0 O_____________ hurdat_atl AL061906 38.2000 -89.4000 EX 30 -4 8 90
1906263N12283 1906 37 NA NA NOT_NAMED 1906-09-29 21:00:00 ET 38.1675 -88.9002 main 0 0 P_____________ AL061906 38.1675 -88.9002 EX 30 -4 8 104
1906263N12283 1906 37 NA NA NOT_NAMED 1906-09-30 00:00:00 ET 38.0000 -88.4000 30 hurdat_atl main 0 0 O_____________ hurdat_atl AL061906 38.0000 -88.4000 EX 30 -4 9 122
1906263N12283 1906 37 NA NA NOT_NAMED 1906-09-30 03:00:00 ET 37.6902 -87.9365 main 0 0 P_____________ AL061906 37.6902 -87.9365 EX 30 -4 10 135
1906263N12283 1906 37 NA NA NOT_NAMED 1906-09-30 06:00:00 ET 37.3000 -87.5000 30 hurdat_atl main 0 O_____________ hurdat_atl AL061906 37.3000 -87.5000 EX 30 -4 10 138

IBTrACS Databaseについて

本データベースは、米国NOAAが公開する1842年以降の世界の熱帯低気圧のベストトラックデータアーカイブInternational Best Track Archive for Climate Stewardship (IBTrACS)を、ウェブで閲覧しやすい形式に変換したものです。

最終更新日:2021-10-25